createdAt,value
2023-01-11T00:00:42.841Z,4.00
2023-01-11T00:03:15.515Z,5.37
2023-01-11T00:05:46.723Z,4.00
2023-01-11T00:08:19.347Z,1.73
2023-01-11T00:10:49.254Z,2.40
2023-01-11T00:13:20.342Z,2.70
2023-01-11T00:15:50.200Z,4.47
2023-01-11T00:18:20.370Z,1.93
2023-01-11T00:20:50.185Z,2.80
2023-01-11T00:23:23.096Z,4.10
2023-01-11T00:25:53.096Z,7.83
2023-01-11T00:28:23.214Z,2.00
2023-01-11T00:30:53.181Z,4.50
2023-01-11T00:33:23.689Z,4.87
2023-01-11T00:35:54.535Z,1.30
2023-01-11T00:38:39.882Z,2.73
2023-01-11T00:41:22.121Z,3.50
2023-01-11T00:44:05.318Z,3.90
2023-01-11T00:46:47.568Z,2.97
2023-01-11T00:49:18.079Z,1.80
2023-01-11T00:51:48.008Z,3.10
2023-01-11T00:54:21.031Z,3.60
2023-01-11T00:56:50.982Z,2.77
2023-01-11T00:59:21.900Z,6.00
2023-01-11T01:01:51.857Z,2.77
2023-01-11T01:04:22.434Z,6.27
2023-01-11T01:06:52.545Z,2.50
2023-01-11T01:09:26.082Z,2.73
2023-01-11T01:11:56.110Z,2.90
2023-01-11T01:14:27.003Z,3.20
2023-01-11T01:16:57.694Z,3.53
2023-01-11T01:19:29.776Z,3.47
2023-01-11T01:22:02.021Z,5.73
2023-01-11T01:24:34.904Z,3.93
2023-01-11T01:27:04.751Z,3.23
2023-01-11T01:29:35.140Z,2.03
2023-01-11T01:32:04.983Z,3.07
2023-01-11T01:34:37.872Z,2.77
2023-01-11T01:37:08.011Z,4.10
2023-01-11T01:39:41.231Z,3.20
2023-01-11T01:42:16.321Z,3.80
2023-01-11T01:45:01.843Z,3.83
2023-01-11T01:47:43.560Z,3.17
2023-01-11T01:50:18.797Z,2.83
2023-01-11T01:52:53.067Z,5.17
2023-01-11T01:55:31.319Z,2.53
2023-01-11T01:58:04.190Z,5.73
2023-01-11T02:00:34.472Z,2.87
2023-01-11T02:03:05.102Z,2.97
2023-01-11T02:05:35.116Z,2.50
2023-01-11T02:08:11.832Z,2.40
2023-01-11T02:10:44.341Z,2.67
2023-01-11T02:13:16.109Z,2.00
2023-01-11T02:15:45.881Z,3.03
2023-01-11T02:18:18.691Z,2.50
2023-01-11T02:21:02.353Z,4.57
2023-01-11T02:23:55.548Z,2.80
2023-01-11T02:26:52.911Z,2.93
2023-01-11T02:29:34.108Z,4.60
2023-01-11T02:32:18.145Z,2.40
2023-01-11T02:34:53.317Z,6.10
2023-01-11T02:37:51.530Z,2.83
2023-01-11T02:40:30.425Z,3.83
2023-01-11T02:43:22.049Z,3.43
2023-01-11T02:46:06.230Z,6.10
2023-01-11T02:48:50.100Z,3.53
2023-01-11T02:51:28.117Z,3.83
2023-01-11T02:54:04.620Z,3.63
2023-01-11T02:56:41.305Z,3.13
2023-01-11T02:59:17.062Z,4.70
2023-01-11T03:01:52.745Z,3.93
2023-01-11T03:04:31.256Z,4.00
2023-01-11T03:07:17.128Z,3.50
2023-01-11T03:10:01.420Z,4.50
2023-01-11T03:12:55.638Z,5.13
2023-01-11T03:15:57.269Z,4.93
2023-01-11T03:18:45.007Z,6.17
2023-01-11T03:21:33.646Z,3.87
2023-01-11T03:24:13.590Z,5.73
2023-01-11T03:27:01.336Z,5.73
2023-01-11T03:29:53.488Z,4.40
2023-01-11T03:32:37.116Z,5.03
2023-01-11T03:35:20.086Z,5.23
2023-01-11T03:37:57.727Z,3.90
2023-01-11T03:40:32.793Z,4.13
2023-01-11T03:43:15.886Z,6.10
2023-01-11T03:45:51.450Z,7.90
2023-01-11T03:48:25.314Z,4.77
2023-01-11T03:51:00.408Z,5.87
2023-01-11T03:56:22.079Z,4.57
2023-01-11T03:58:53.526Z,6.37
2023-01-11T04:01:23.691Z,7.07
2023-01-11T04:03:55.296Z,4.53
2023-01-11T04:06:29.238Z,5.37
2023-01-11T04:08:59.682Z,4.60
2023-01-11T04:11:34.655Z,5.63
2023-01-11T04:14:05.473Z,7.23
2023-01-11T04:16:35.467Z,5.20
2023-01-11T04:19:05.859Z,4.33
2023-01-11T04:21:39.656Z,6.47
2023-01-11T04:24:12.910Z,6.57
2023-01-11T04:26:46.514Z,5.80
2023-01-11T04:29:17.903Z,5.30
2023-01-11T04:31:48.671Z,5.57
2023-01-11T04:34:20.064Z,6.77
2023-01-11T04:36:56.372Z,5.00
2023-01-11T04:39:28.590Z,4.77
2023-01-11T04:42:12.129Z,5.13
2023-01-11T04:44:45.882Z,5.13
2023-01-11T04:47:16.590Z,4.87
2023-01-11T04:49:48.053Z,4.57
2023-01-11T04:52:24.975Z,5.77
2023-01-11T04:54:55.894Z,5.73
2023-01-11T04:57:26.263Z,5.07
2023-01-11T04:59:56.632Z,4.90
2023-01-11T05:02:27.646Z,5.47
2023-01-11T05:04:58.304Z,7.53
2023-01-11T05:07:32.511Z,5.30
2023-01-11T05:10:08.407Z,4.80
2023-01-11T05:12:39.896Z,4.60
2023-01-11T05:15:13.525Z,4.90
2023-01-11T05:17:44.529Z,7.40
2023-01-11T05:20:15.168Z,4.90
2023-01-11T05:22:48.707Z,4.60
2023-01-11T05:25:19.358Z,4.07
2023-01-11T05:27:49.351Z,3.63
2023-01-11T05:30:20.384Z,4.67
2023-01-11T05:32:50.376Z,4.13
2023-01-11T05:35:22.408Z,3.90
2023-01-11T05:37:54.995Z,3.33
2023-01-11T05:40:27.099Z,3.37
2023-01-11T05:42:58.739Z,3.63
2023-01-11T05:45:30.497Z,2.97
2023-01-11T05:48:02.560Z,3.60
2023-01-11T05:50:34.869Z,3.63
2023-01-11T05:53:11.406Z,5.30
2023-01-11T05:55:41.701Z,3.53
2023-01-11T05:58:11.763Z,2.97
2023-01-11T06:00:41.942Z,3.20
2023-01-11T06:03:12.093Z,3.30
2023-01-11T06:05:42.279Z,2.83
2023-01-11T06:08:14.809Z,4.63
2023-01-11T06:10:46.598Z,4.27
2023-01-11T06:13:31.582Z,4.53
2023-01-11T06:16:03.288Z,4.23
2023-01-11T06:18:35.183Z,5.40
2023-01-11T06:21:05.757Z,4.23
2023-01-11T06:23:40.485Z,141.20
2023-01-11T06:26:13.116Z,47.40
2023-01-11T06:28:47.048Z,16.30
2023-01-11T06:31:19.217Z,182.67
2023-01-11T06:33:49.766Z,235.80
2023-01-11T06:36:20.060Z,586.87
2023-01-11T06:38:52.587Z,535.77
2023-01-11T06:41:22.495Z,507.17
2023-01-11T06:43:53.547Z,629.50
2023-01-11T06:46:23.938Z,406.93
2023-01-11T06:48:54.579Z,631.23
2023-01-11T06:51:25.242Z,586.77
2023-01-11T06:53:58.251Z,521.23
2023-01-11T06:56:28.403Z,751.80
2023-01-11T06:58:58.635Z,640.10
2023-01-11T07:01:30.539Z,478.20
2023-01-11T07:04:00.840Z,712.07
2023-01-11T07:06:32.193Z,676.93
2023-01-11T07:09:05.898Z,608.40
2023-01-11T07:11:39.288Z,1003.53
2023-01-11T07:14:12.928Z,878.17
2023-01-11T07:16:42.836Z,724.90
2023-01-11T07:19:13.311Z,1186.63
2023-01-11T07:21:43.119Z,881.70
2023-01-11T07:24:16.641Z,612.83
2023-01-11T07:26:46.518Z,155.63
2023-01-11T07:29:17.749Z,232.93
2023-01-11T07:31:49.324Z,47.40
2023-01-11T07:34:19.291Z,9.10
2023-01-11T07:36:49.188Z,43.23
2023-01-11T07:39:29.103Z,3.83
2023-01-11T07:42:26.173Z,2.90
2023-01-11T07:44:56.003Z,3.70
2023-01-11T07:47:26.190Z,3.63
2023-01-11T07:49:56.137Z,2.20
2023-01-11T07:52:25.932Z,2.20
2023-01-11T07:55:02.917Z,1.77
2023-01-11T07:57:33.552Z,3.20
2023-01-11T08:00:03.668Z,3.20
2023-01-11T08:02:41.541Z,3.33
2023-01-11T08:05:12.691Z,4.40
2023-01-11T08:07:44.566Z,5.30
2023-01-11T08:10:17.860Z,10.97
2023-01-11T08:13:01.387Z,13.13
2023-01-11T08:15:31.261Z,54.80
2023-01-11T08:18:01.520Z,5.03
2023-01-11T08:20:32.861Z,5.17
2023-01-11T08:23:06.529Z,21.67
2023-01-11T08:25:39.836Z,5.70
2023-01-11T08:28:10.517Z,4.40
2023-01-11T08:30:41.602Z,2.60
2023-01-11T08:33:13.042Z,1.70
2023-01-11T08:35:43.549Z,2.33
2023-01-11T08:38:13.483Z,2.50
2023-01-11T08:40:46.273Z,2.90
2023-01-11T08:43:16.385Z,7.07
2023-01-11T08:45:46.589Z,42.87
2023-01-11T08:48:16.569Z,25.93
2023-01-11T08:50:46.808Z,88.33
2023-01-11T08:53:16.605Z,32.60
2023-01-11T08:55:50.708Z,10.53
2023-01-11T08:58:21.658Z,24.57
2023-01-11T09:00:51.720Z,17.60
2023-01-11T09:03:21.486Z,29.93
2023-01-11T09:05:51.698Z,203.43
2023-01-11T09:08:21.468Z,35.10
2023-01-11T09:10:54.396Z,140.07
2023-01-11T09:13:24.284Z,332.67
2023-01-11T09:15:58.620Z,591.53
2023-01-11T09:18:28.547Z,443.00
2023-01-11T09:20:59.166Z,369.00
2023-01-11T09:23:28.953Z,386.43
2023-01-11T09:26:01.734Z,279.17
2023-01-11T09:28:31.564Z,200.37
2023-01-11T09:31:01.430Z,299.03
2023-01-11T09:33:31.338Z,499.57
2023-01-11T09:36:03.280Z,461.93
2023-01-11T09:38:34.124Z,272.20
2023-01-11T09:41:19.691Z,350.07
2023-01-11T09:43:57.168Z,299.67
2023-01-11T09:46:28.881Z,231.23
2023-01-11T09:49:03.436Z,115.63
2023-01-11T09:51:40.011Z,162.17
2023-01-11T09:54:12.952Z,240.43
2023-01-11T09:56:54.846Z,3.50
2023-01-11T09:59:34.730Z,16.83
2023-01-11T10:02:16.960Z,10.17
2023-01-11T10:05:18.698Z,18.17
2023-01-11T10:18:25.524Z,260.33
2023-01-11T10:18:31.010Z,168.10
2023-01-11T10:20:01.411Z,474.33
2023-01-11T10:22:36.924Z,277.73
2023-01-11T10:25:11.726Z,133.53
2023-01-11T10:27:45.473Z,364.77
2023-01-11T10:30:35.505Z,65.53
2023-01-11T10:33:18.759Z,224.43
2023-01-11T10:36:10.924Z,128.07
2023-01-11T10:39:03.388Z,307.33
2023-01-11T10:41:43.161Z,288.03
2023-01-11T10:44:19.425Z,109.37
2023-01-11T10:46:55.429Z,130.17
2023-01-11T10:49:35.795Z,173.83
2023-01-11T10:52:16.509Z,55.13
2023-01-11T10:54:51.086Z,211.70
2023-01-11T10:57:26.534Z,224.17
2023-01-11T11:00:11.171Z,167.23
2023-01-11T11:03:21.487Z,297.73
2023-01-11T11:05:56.655Z,272.77
2023-01-11T11:08:33.580Z,162.40
2023-01-11T11:11:06.333Z,314.20
2023-01-11T11:13:48.615Z,30.63
2023-01-11T11:16:34.634Z,78.10
2023-01-11T11:19:07.563Z,189.33
2023-01-11T11:21:41.790Z,322.00
2023-01-11T11:24:22.714Z,395.70
2023-01-11T11:27:01.770Z,415.77
2023-01-11T11:29:32.033Z,425.23
2023-01-11T11:32:03.875Z,282.27
2023-01-11T11:34:36.431Z,154.27
2023-01-11T11:37:07.240Z,51.70
2023-01-11T11:39:37.310Z,163.40
2023-01-11T11:42:10.755Z,108.67
2023-01-11T11:44:40.565Z,3.77
2023-01-11T11:47:18.325Z,131.00
2023-01-11T11:49:50.938Z,134.60
2023-01-11T11:52:21.558Z,23.73
2023-01-11T11:54:56.748Z,132.73
2023-01-11T11:57:29.191Z,2.30
2023-01-11T12:00:05.633Z,107.87
2023-01-11T12:02:38.534Z,34.37
2023-01-11T12:05:13.874Z,75.20
2023-01-11T12:07:55.172Z,175.37
2023-01-11T12:10:27.632Z,38.83
2023-01-11T12:13:00.160Z,67.40
2023-01-11T12:15:31.397Z,53.70
2023-01-11T12:18:25.754Z,9.63
2023-01-11T12:20:59.176Z,7.57
2023-01-11T12:23:29.606Z,18.90
2023-01-11T12:26:22.884Z,1.50
2023-01-11T12:29:17.800Z,3.50
2023-01-11T12:32:08.589Z,44.03
2023-01-11T12:34:52.536Z,16.60
2023-01-11T12:37:38.293Z,42.80
2023-01-11T12:40:16.257Z,5.97
2023-01-11T12:43:03.348Z,48.17
2023-01-11T12:45:42.864Z,104.60
2023-01-11T12:48:43.144Z,117.93
2023-01-11T12:51:24.251Z,206.30
2023-01-11T12:54:06.562Z,220.73
2023-01-11T12:56:47.020Z,392.63
2023-01-11T12:59:30.543Z,716.10
2023-01-11T13:02:16.165Z,529.03
2023-01-11T13:04:53.878Z,338.63
2023-01-11T13:07:46.465Z,480.67
2023-01-11T13:10:35.834Z,710.60
2023-01-11T13:13:11.507Z,791.20
2023-01-11T13:15:52.171Z,535.17
2023-01-11T13:18:31.665Z,561.90
2023-01-11T13:21:12.452Z,387.17
2023-01-11T13:23:46.387Z,597.30
2023-01-11T13:26:29.411Z,348.60
2023-01-11T13:29:05.040Z,316.30
2023-01-11T13:31:36.589Z,524.10
2023-01-11T13:34:10.582Z,396.97
2023-01-11T13:36:45.659Z,242.47
2023-01-11T13:39:23.408Z,253.80
2023-01-11T13:41:59.553Z,548.97
2023-01-11T13:44:36.943Z,688.00
2023-01-11T13:47:12.483Z,554.60
2023-01-11T13:49:51.843Z,679.33
2023-01-11T13:52:25.553Z,475.27
2023-01-11T13:55:01.913Z,595.57
2023-01-11T13:57:43.826Z,518.90
2023-01-11T14:00:24.043Z,254.90
2023-01-11T14:02:59.291Z,753.57
2023-01-11T14:05:35.448Z,517.70
2023-01-11T14:08:22.805Z,291.47
2023-01-11T14:11:03.870Z,289.03
2023-01-11T14:14:08.521Z,113.00
2023-01-11T14:17:02.570Z,15.80
2023-01-11T14:19:38.584Z,294.30
2023-01-11T14:22:18.176Z,5.80
2023-01-11T14:24:56.573Z,7.40
2023-01-11T14:27:58.263Z,8.63
2023-01-11T14:33:56.977Z,9.23
2023-01-11T14:37:08.818Z,9.67
2023-01-11T14:40:03.047Z,9.40
2023-01-11T14:43:04.620Z,8.10
2023-01-11T14:46:10.442Z,8.67
2023-01-11T14:48:52.503Z,7.67
2023-01-11T14:51:33.472Z,8.83
2023-01-11T14:54:10.915Z,9.43
2023-01-11T14:56:54.557Z,8.60
2023-01-11T14:59:41.139Z,8.97
2023-01-11T15:02:30.042Z,8.83
2023-01-11T15:05:11.810Z,8.90
2023-01-11T15:07:45.746Z,8.80
2023-01-11T15:10:57.896Z,10.70
2023-01-11T15:13:31.994Z,8.87
2023-01-11T15:16:23.817Z,11.70
2023-01-11T15:18:57.783Z,12.33
2023-01-11T15:21:30.206Z,8.80
2023-01-11T15:24:02.159Z,11.43
2023-01-11T15:26:32.199Z,13.00
2023-01-11T15:29:03.833Z,10.40
2023-01-11T15:31:39.363Z,9.40
2023-01-11T15:34:32.190Z,11.30
2023-01-11T15:37:38.985Z,13.23
2023-01-11T15:40:19.160Z,13.07
2023-01-11T15:43:26.698Z,12.10
2023-01-11T15:46:26.107Z,12.10
2023-01-11T15:49:33.495Z,11.70
2023-01-11T15:52:21.270Z,13.70
2023-01-11T15:55:18.403Z,11.17
2023-01-11T15:58:12.052Z,10.70
2023-01-11T16:01:24.350Z,14.17
2023-01-11T16:04:06.928Z,9.37
2023-01-11T16:06:44.955Z,12.13
2023-01-11T16:09:38.110Z,10.77
2023-01-11T16:12:33.511Z,12.13
2023-01-11T16:15:19.325Z,11.87
2023-01-11T16:17:51.875Z,12.83
2023-01-11T16:20:27.926Z,14.73
2023-01-11T16:23:02.819Z,9.83
2023-01-11T16:25:40.810Z,12.87
2023-01-11T16:28:18.487Z,14.13
2023-01-11T16:30:49.735Z,15.47
2023-01-11T16:33:25.250Z,15.03
2023-01-11T16:36:08.513Z,11.83
2023-01-11T16:38:49.287Z,11.00
2023-01-11T16:41:24.319Z,15.37
2023-01-11T16:44:02.374Z,12.47
2023-01-11T16:47:02.957Z,12.40
2023-01-11T16:49:33.809Z,12.57
2023-01-11T16:52:34.899Z,15.67
2023-01-11T16:55:07.632Z,12.97
2023-01-11T16:57:47.102Z,13.83
2023-01-11T17:00:29.149Z,14.03
2023-01-11T17:03:24.470Z,15.97
2023-01-11T17:06:04.397Z,11.90
2023-01-11T17:08:36.672Z,11.60
2023-01-11T17:11:13.514Z,14.17
2023-01-11T17:14:11.565Z,14.23
2023-01-11T17:16:45.085Z,12.33
2023-01-11T17:19:18.971Z,9.63
2023-01-11T17:21:54.481Z,8.87
2023-01-11T17:24:27.128Z,9.00
2023-01-11T17:27:00.635Z,8.73
2023-01-11T17:29:36.187Z,8.70
2023-01-11T17:32:09.945Z,10.30
2023-01-11T17:34:41.821Z,11.23
2023-01-11T17:37:17.248Z,14.03
2023-01-11T17:39:51.517Z,10.17
2023-01-11T17:42:37.792Z,8.40
2023-01-11T17:45:21.358Z,10.00
2023-01-11T17:47:53.030Z,8.80
2023-01-11T17:50:28.161Z,9.57
2023-01-11T18:03:59.679Z,8.43
2023-01-11T18:07:19.141Z,9.77
2023-01-11T18:10:29.136Z,8.10
2023-01-11T18:14:07.175Z,9.33
2023-01-11T18:16:54.464Z,6.70
2023-01-11T18:19:36.329Z,9.73
2023-01-11T18:22:21.789Z,7.03
2023-01-11T18:25:14.824Z,9.07
2023-01-11T18:28:47.325Z,6.80
2023-01-11T18:31:31.131Z,13.00
2023-01-11T18:34:07.539Z,8.63
2023-01-11T18:36:50.283Z,5.73
2023-01-11T18:39:45.165Z,6.93
2023-01-11T18:42:20.873Z,11.03
2023-01-11T18:45:41.696Z,8.33
2023-01-11T18:48:27.638Z,6.87
2023-01-11T18:51:24.814Z,9.33
2023-01-11T18:54:25.829Z,6.10
2023-01-11T18:57:28.695Z,10.77
2023-01-11T19:00:06.467Z,5.00
2023-01-11T19:03:08.787Z,4.10
2023-01-11T19:06:12.028Z,8.17
2023-01-11T19:09:04.218Z,7.87
2023-01-11T19:16:04.988Z,8.60
2023-01-11T19:19:10.975Z,7.47
2023-01-11T19:22:26.063Z,4.80
2023-01-11T19:25:07.097Z,7.60
2023-01-11T19:30:41.747Z,6.20
2023-01-11T19:33:33.055Z,5.87
2023-01-11T19:36:10.731Z,6.83
2023-01-11T19:38:56.298Z,9.77
2023-01-11T19:44:55.331Z,5.77
2023-01-11T19:47:35.194Z,6.97
2023-01-11T19:50:10.064Z,8.20
2023-01-11T19:53:12.820Z,6.80
2023-01-11T19:55:46.124Z,6.57
2023-01-11T19:58:20.933Z,10.13
2023-01-11T20:00:54.849Z,7.43
2023-01-11T20:03:27.206Z,6.00
2023-01-11T20:06:13.209Z,7.80
2023-01-11T20:08:43.985Z,10.83
2023-01-11T20:11:18.444Z,7.77
2023-01-11T20:13:53.595Z,8.00
2023-01-11T20:16:43.677Z,9.60
2023-01-11T20:19:19.586Z,9.17
2023-01-11T20:21:52.769Z,7.83
2023-01-11T20:24:30.196Z,7.00
2023-01-11T20:27:08.007Z,6.73
2023-01-11T20:29:38.862Z,10.70
2023-01-11T20:32:31.203Z,14.03
2023-01-11T20:34:59.134Z,8.93
2023-01-11T20:37:29.224Z,7.33
2023-01-11T20:39:59.404Z,6.73
2023-01-11T20:42:33.079Z,5.83
2023-01-11T20:45:03.507Z,6.53
2023-01-11T20:47:33.291Z,9.70
2023-01-11T20:50:03.179Z,6.70
2023-01-11T20:52:32.996Z,9.50
2023-01-11T20:55:03.481Z,8.63
2023-01-11T20:57:35.882Z,11.47
2023-01-11T21:00:07.667Z,7.43
2023-01-11T21:02:37.536Z,14.20
2023-01-11T21:05:09.221Z,13.20
2023-01-11T21:07:39.223Z,10.73
2023-01-11T21:10:11.471Z,5.63
2023-01-11T21:12:43.927Z,4.97
2023-01-11T21:15:14.687Z,7.67
2023-01-11T21:17:44.528Z,8.30
2023-01-11T21:20:15.452Z,7.13
2023-01-11T21:22:45.262Z,6.03
2023-01-11T21:25:17.776Z,3.90
2023-01-11T21:27:50.210Z,10.40
2023-01-11T21:30:22.061Z,9.60
2023-01-11T21:32:52.014Z,8.70
2023-01-11T21:35:22.416Z,7.83
2023-01-11T21:37:52.450Z,6.43
2023-01-11T21:40:23.213Z,5.97
2023-01-11T21:42:55.651Z,11.10
2023-01-11T21:45:26.083Z,4.67
2023-01-11T21:47:55.898Z,10.00
2023-01-11T21:50:26.270Z,10.20
2023-01-11T21:52:56.865Z,4.57
2023-01-11T21:55:27.282Z,8.70
2023-01-11T21:57:59.711Z,4.57
2023-01-11T22:00:31.078Z,6.77
2023-01-11T22:03:00.948Z,6.23
2023-01-11T22:05:31.121Z,6.47
2023-01-11T22:08:00.959Z,5.37
2023-01-11T22:10:31.327Z,6.40
2023-01-11T22:13:03.802Z,7.37
2023-01-11T22:15:33.615Z,3.67
2023-01-11T22:18:03.439Z,7.43
2023-01-11T22:20:33.554Z,6.87
2023-01-11T22:23:03.400Z,7.63
2023-01-11T22:25:33.457Z,9.60
2023-01-11T22:28:05.893Z,10.63
2023-01-11T22:30:35.941Z,8.23
2023-01-11T22:33:07.416Z,6.40
2023-01-11T22:35:37.607Z,8.00
2023-01-11T22:38:07.417Z,3.60
2023-01-11T22:40:37.597Z,4.07
2023-01-11T22:43:10.049Z,4.30
2023-01-11T22:45:40.634Z,5.43
2023-01-11T22:48:11.021Z,6.00
2023-01-11T22:50:42.465Z,5.63
2023-01-11T22:53:12.290Z,4.50
2023-01-11T22:55:42.339Z,5.50
2023-01-11T22:58:14.827Z,4.27
2023-01-11T23:00:45.242Z,5.47
2023-01-11T23:03:15.169Z,7.20
2023-01-11T23:05:48.741Z,12.07
2023-01-11T23:08:19.148Z,7.90
2023-01-11T23:10:49.634Z,4.23
2023-01-11T23:13:40.218Z,8.23
2023-01-11T23:16:11.252Z,4.90
2023-01-11T23:18:41.528Z,5.37
2023-01-11T23:21:12.099Z,6.13
2023-01-11T23:23:42.026Z,8.07
2023-01-11T23:26:12.829Z,4.83
2023-01-11T23:28:45.197Z,3.90
2023-01-11T23:31:20.728Z,5.13
2023-01-11T23:33:52.325Z,4.20
2023-01-11T23:36:24.500Z,4.70
2023-01-11T23:38:54.536Z,6.23
2023-01-11T23:41:37.876Z,4.73
2023-01-11T23:44:12.308Z,5.20
2023-01-11T23:46:56.102Z,3.90
2023-01-11T23:49:26.467Z,4.60
2023-01-11T23:51:58.104Z,4.60
2023-01-11T23:54:30.041Z,8.77
2023-01-11T23:57:02.207Z,5.43
2023-01-11T23:59:35.341Z,12.90
